createdAt,value
2023-03-28T11:27:15.497Z,720.00
2023-03-28T11:28:07.559Z,725.63
2023-03-28T11:29:07.529Z,725.63
2023-03-28T11:30:07.489Z,731.25
2023-03-28T11:31:07.538Z,736.88
2023-03-28T11:32:07.470Z,736.88
2023-03-28T11:33:07.516Z,748.13
2023-03-28T11:34:07.414Z,753.75
2023-03-28T11:35:07.423Z,765.00
2023-03-28T11:36:07.503Z,765.00
2023-03-28T11:37:07.365Z,770.63
2023-03-28T11:38:07.338Z,776.25
2023-03-28T11:39:07.362Z,787.50
2023-03-28T11:40:08.959Z,787.50
2023-03-28T11:41:07.311Z,787.50
2023-03-28T11:42:07.272Z,787.50
2023-03-28T11:43:07.288Z,787.50
2023-03-28T11:44:07.238Z,781.88
2023-03-28T11:45:07.238Z,765.00
2023-03-28T11:46:07.290Z,765.00
2023-03-28T11:47:07.198Z,765.00
2023-03-28T11:48:07.247Z,765.00
2023-03-28T11:49:07.163Z,770.63
2023-03-28T11:50:07.145Z,776.25
2023-03-28T11:51:07.139Z,781.88
2023-03-28T11:52:07.093Z,781.88
2023-03-28T11:53:07.114Z,725.63
2023-03-28T11:54:07.080Z,742.50
2023-03-28T11:55:07.054Z,815.63
2023-03-28T11:56:07.053Z,933.75
2023-03-28T11:57:07.087Z,1119.38
2023-03-28T11:58:07.027Z,1147.50
2023-03-28T11:59:07.014Z,1102.50
2023-03-28T12:00:06.970Z,1040.63
2023-03-28T12:01:07.003Z,990.00
2023-03-28T12:02:06.965Z,922.50
2023-03-28T12:03:07.008Z,883.13
2023-03-28T12:04:07.010Z,849.38
2023-03-28T12:05:06.874Z,838.13
2023-03-28T12:06:08.997Z,860.63
2023-03-28T12:07:06.867Z,866.25
2023-03-28T12:08:06.848Z,860.63
2023-03-28T12:09:06.867Z,888.75
2023-03-28T12:10:06.792Z,888.75
2023-03-28T12:11:06.805Z,894.38
2023-03-28T12:12:06.753Z,900.00
2023-03-28T12:13:06.753Z,916.88
2023-03-28T12:14:12.238Z,950.63
2023-03-28T12:15:06.724Z,1018.13
2023-03-28T12:16:06.694Z,1040.63
2023-03-28T12:17:06.692Z,1158.75
2023-03-28T12:18:06.723Z,1243.13
2023-03-28T12:19:06.658Z,1462.50
2023-03-28T12:20:06.640Z,1586.25
2023-03-28T12:21:06.640Z,1631.25
2023-03-28T12:22:06.579Z,1636.88
2023-03-28T12:23:06.589Z,1704.38
2023-03-28T12:24:06.547Z,1693.13
2023-03-28T12:25:06.554Z,1445.63
2023-03-28T12:26:06.531Z,1794.38
2023-03-28T12:27:06.536Z,1946.25
2023-03-28T12:28:06.483Z,2182.50
2023-03-28T12:29:06.470Z,2435.63
2023-03-28T12:30:06.445Z,2368.13
2023-03-28T12:31:06.487Z,2458.13
2023-03-28T12:32:06.444Z,2520.00
2023-03-28T12:33:06.452Z,2604.38
2023-03-28T12:34:06.395Z,2503.13
2023-03-28T12:35:06.370Z,2581.88
2023-03-28T12:36:06.404Z,2070.00
2023-03-28T12:37:06.373Z,1327.50
2023-03-28T12:38:06.344Z,1192.50
2023-03-28T12:39:06.309Z,1541.25
2023-03-28T12:40:06.308Z,2064.38
2023-03-28T12:41:06.274Z,2548.13
2023-03-28T12:42:06.284Z,2621.25
2023-03-28T12:43:06.244Z,1918.13
2023-03-28T12:44:06.224Z,2075.63
2023-03-28T12:45:06.212Z,2722.50
2023-03-28T12:46:06.271Z,2446.88
2023-03-28T12:47:06.192Z,2694.38
2023-03-28T12:48:06.210Z,2570.63
2023-03-28T12:49:06.165Z,2733.75
2023-03-28T12:50:06.149Z,2930.63
2023-03-28T12:51:06.121Z,2874.38
2023-03-28T12:52:06.134Z,3031.88
2023-03-28T12:53:06.114Z,2958.75
2023-03-28T12:54:06.068Z,2812.50
2023-03-28T12:55:06.061Z,3009.38
2023-03-28T12:56:06.060Z,2750.63
2023-03-28T12:57:06.062Z,2334.38
2023-03-28T12:58:06.030Z,2880.00
2023-03-28T12:59:06.022Z,2964.38
2023-03-28T13:00:06.006Z,2958.75
2023-03-28T13:01:06.037Z,2947.50
2023-03-28T13:02:05.970Z,2998.13
2023-03-28T13:03:06.040Z,3105.00
2023-03-28T13:04:05.975Z,2975.63
2023-03-28T13:05:05.919Z,2986.88
2023-03-28T13:06:05.915Z,3290.63
2023-03-28T13:07:05.908Z,3150.00
2023-03-28T13:08:05.899Z,2756.25
2023-03-28T13:09:05.859Z,2694.38
2023-03-28T13:10:05.861Z,2182.50
2023-03-28T13:11:05.851Z,2278.13
2023-03-28T13:12:05.812Z,2227.50
2023-03-28T13:13:05.840Z,2351.25
2023-03-28T13:14:05.785Z,2092.50
2023-03-28T13:15:05.801Z,1755.00
2023-03-28T13:16:05.838Z,1648.13
2023-03-28T13:17:05.755Z,1800.00
2023-03-28T13:18:05.758Z,1355.63
2023-03-28T13:19:05.748Z,1434.38
2023-03-28T13:20:05.712Z,1501.88
2023-03-28T13:21:05.722Z,1411.88
2023-03-28T13:22:05.700Z,1541.25
2023-03-28T13:23:05.681Z,1237.50
2023-03-28T13:24:05.667Z,1237.50
2023-03-28T13:25:05.648Z,1125.00
2023-03-28T13:26:05.643Z,1147.50
2023-03-28T13:27:05.640Z,1063.13
2023-03-28T13:28:05.601Z,1001.25
2023-03-28T13:29:05.624Z,928.13
2023-03-28T13:30:05.598Z,911.25
2023-03-28T13:31:05.639Z,888.75
2023-03-28T13:32:05.572Z,883.13
2023-03-28T13:33:05.577Z,911.25
2023-03-28T13:34:05.533Z,961.88
2023-03-28T13:35:05.579Z,1012.50
2023-03-28T13:36:05.943Z,1175.63
2023-03-28T13:37:05.488Z,1181.25
2023-03-28T13:38:05.466Z,1085.63
2023-03-28T13:39:05.468Z,1074.38
2023-03-28T13:40:05.441Z,995.63
2023-03-28T13:41:05.448Z,1046.25
2023-03-28T13:42:05.407Z,1023.75
2023-03-28T13:43:05.422Z,1096.88
2023-03-28T13:44:05.377Z,1153.13
2023-03-28T13:45:05.382Z,1153.13
2023-03-28T13:46:05.354Z,1170.00
2023-03-28T13:47:05.387Z,1243.13
2023-03-28T13:48:13.225Z,1243.13
2023-03-28T13:49:05.336Z,1192.50
2023-03-28T13:50:05.306Z,1395.00
2023-03-28T13:51:05.285Z,1085.63
2023-03-28T13:52:05.283Z,1085.63
2023-03-28T13:53:05.261Z,1006.88
2023-03-28T13:54:05.236Z,1068.75
2023-03-28T13:55:05.241Z,990.00
2023-03-28T13:56:05.225Z,990.00
2023-03-28T13:57:05.249Z,894.38
2023-03-28T13:58:05.193Z,871.88
2023-03-28T13:59:05.167Z,866.25
2023-03-28T14:00:05.189Z,939.38
2023-03-28T14:01:05.175Z,1051.88
2023-03-28T14:02:05.178Z,1057.50
2023-03-28T14:03:05.159Z,1063.13
2023-03-28T14:04:05.099Z,1125.00
2023-03-28T14:05:05.105Z,1485.00
2023-03-28T14:06:05.088Z,1366.88
2023-03-28T14:07:05.666Z,1968.75
2023-03-28T14:08:05.038Z,1794.38
2023-03-28T14:09:05.028Z,2458.13
2023-03-28T14:10:05.067Z,2998.13
2023-03-28T14:11:04.992Z,2160.00
2023-03-28T14:12:05.007Z,2013.75
2023-03-28T14:13:04.982Z,2503.13
2023-03-28T14:14:06.656Z,3043.13
2023-03-28T14:15:04.951Z,2126.25
2023-03-28T14:16:05.013Z,2019.38
2023-03-28T14:17:04.911Z,1243.13
2023-03-28T14:18:05.010Z,2435.63
2023-03-28T14:19:04.944Z,2790.00
2023-03-28T14:20:05.010Z,2632.50
2023-03-28T14:21:04.859Z,2874.38
2023-03-28T14:22:04.862Z,3043.13
2023-03-28T14:23:04.836Z,2801.25
2023-03-28T14:24:04.831Z,2733.75
2023-03-28T14:25:04.852Z,2598.75
2023-03-28T14:26:04.842Z,2559.38
2023-03-28T14:27:04.789Z,2520.00
2023-03-28T14:28:04.789Z,2435.63
2023-03-28T14:29:04.786Z,1726.88
2023-03-28T14:30:04.761Z,1783.13
2023-03-28T14:31:04.757Z,1636.88
2023-03-28T14:32:04.774Z,1462.50
2023-03-28T14:33:04.761Z,1395.00
2023-03-28T14:34:04.745Z,1147.50
2023-03-28T14:35:04.727Z,1248.75
2023-03-28T14:36:04.728Z,1518.75
2023-03-28T14:37:04.681Z,1845.00
2023-03-28T14:38:04.706Z,1884.38
2023-03-28T14:39:04.757Z,1974.38
2023-03-28T14:40:04.677Z,1940.63
2023-03-28T14:41:04.647Z,1850.63
2023-03-28T14:42:04.660Z,1845.00
2023-03-28T14:43:04.634Z,1783.13
2023-03-28T14:44:04.605Z,1625.63
2023-03-28T14:45:04.607Z,1417.50
2023-03-28T14:46:04.641Z,1440.00
2023-03-28T14:47:04.585Z,1271.25
2023-03-28T14:48:04.584Z,984.38
2023-03-28T14:49:04.542Z,843.75
2023-03-28T14:50:04.547Z,855.00
2023-03-28T14:51:04.557Z,877.50
2023-03-28T14:52:04.540Z,804.38
2023-03-28T14:53:04.525Z,793.13
2023-03-28T14:54:04.529Z,781.88
2023-03-28T14:55:04.495Z,776.25
2023-03-28T14:56:06.419Z,781.88
2023-03-28T14:57:04.505Z,776.25
2023-03-28T14:58:04.461Z,781.88
2023-03-28T14:59:04.456Z,787.50
2023-03-28T15:00:04.468Z,810.00
2023-03-28T15:01:04.554Z,832.50
2023-03-28T15:02:04.542Z,855.00
2023-03-28T15:03:04.449Z,855.00
2023-03-28T15:04:04.399Z,843.75
2023-03-28T15:05:04.384Z,798.75
2023-03-28T15:06:04.384Z,770.63
2023-03-28T15:07:04.608Z,736.88
2023-03-28T15:08:16.255Z,742.50
2023-03-28T15:09:16.242Z,793.13
2023-03-28T15:10:16.261Z,810.00
2023-03-28T15:11:16.234Z,855.00
2023-03-28T15:12:16.207Z,855.00
2023-03-28T15:13:17.391Z,815.63
2023-03-28T15:14:16.173Z,787.50
2023-03-28T15:15:16.189Z,725.63
2023-03-28T15:16:16.218Z,663.75
2023-03-28T15:17:16.141Z,624.38
2023-03-28T15:18:16.134Z,601.88
